Time;durP1;ratioP1;P1;durP2;ratioP2;P2;SDS_P1;SDS_P2;PMS_P1;PMS_P2;Temp;Humidity;BMP_temperature;BMP_pressure;BME280_temperature;BME280_humidity;BME280_pressure;Samples;Min_cycle;Max_cycle;Signal;HPM_P1;HPM_P2
2022/08/27 00:00:19;;;;;;;10.45;4.60;;;14.30;99.90;;;;;;5028487;28;20041;-67
2022/08/27 00:02:46;;;;;;;9.02;4.70;;;14.10;99.90;;;;;;5046628;28;20041;-66
2022/08/27 00:05:14;;;;;;;13.40;5.00;;;14.10;99.90;;;;;;5048925;28;20044;-67
2022/08/27 00:07:40;;;;;;;13.75;5.05;;;14.00;99.90;;;;;;5050842;28;20044;-67
2022/08/27 00:10:09;;;;;;;10.23;4.80;;;14.00;99.90;;;;;;5053619;28;20076;-67
2022/08/27 00:12:35;;;;;;;12.27;4.95;;;14.00;99.90;;;;;;5050216;28;20294;-67
2022/08/27 00:15:02;;;;;;;8.48;4.95;;;14.00;99.90;;;;;;5046911;28;20423;-67
2022/08/27 00:17:28;;;;;;;9.73;5.40;;;14.00;99.90;;;;;;5041745;28;20052;-67
2022/08/27 00:19:53;;;;;;;10.15;5.10;;;13.90;99.90;;;;;;5050519;28;20041;-68
2022/08/27 00:22:19;;;;;;;10.48;6.05;;;13.90;99.90;;;;;;5051860;28;20076;-67
2022/08/27 00:24:44;;;;;;;12.30;5.72;;;13.90;99.90;;;;;;5049586;28;20392;-67
2022/08/27 00:27:10;;;;;;;10.25;5.70;;;13.80;99.90;;;;;;5053282;28;20045;-68
2022/08/27 00:29:36;;;;;;;11.55;5.85;;;13.90;99.90;;;;;;5050266;28;20047;-67
2022/08/27 00:32:02;;;;;;;8.57;5.57;;;13.80;99.90;;;;;;5061917;28;20403;-67
2022/08/27 00:34:27;;;;;;;10.23;5.97;;;13.80;99.90;;;;;;5051122;28;20064;-67
2022/08/27 00:36:53;;;;;;;9.20;5.88;;;13.80;99.90;;;;;;5053852;28;20044;-67
2022/08/27 00:39:19;;;;;;;10.32;4.95;;;13.70;99.90;;;;;;5051010;28;20041;-67
2022/08/27 00:41:45;;;;;;;14.40;6.60;;;13.60;99.90;;;;;;5051807;28;20075;-67
2022/08/27 00:44:12;;;;;;;15.80;7.05;;;13.50;99.90;;;;;;5052888;28;20068;-67
2022/08/27 00:46:39;;;;;;;11.30;6.43;;;13.40;99.90;;;;;;5052216;28;20051;-67
2022/08/27 00:49:28;;;;;;;11.85;6.25;;;13.40;99.90;;;;;;5052019;28;20048;-67
2022/08/27 00:52:03;;;;;;;11.13;6.70;;;13.40;99.90;;;;;;5047593;28;20145;-67
2022/08/27 00:54:28;;;;;;;14.95;7.00;;;13.40;99.90;;;;;;5050527;28;20061;-67
2022/08/27 00:56:56;;;;;;;13.15;6.85;;;13.40;99.90;;;;;;5046123;28;20090;-67
2022/08/27 00:59:27;;;;;;;8.38;6.30;;;13.40;99.90;;;;;;5046429;28;20712;-67
2022/08/27 01:04:41;;;;;;;12.57;7.13;;;13.40;99.90;;;;;;5067062;28;20052;-66
2022/08/27 01:07:08;;;;;;;15.25;7.07;;;13.30;99.90;;;;;;5031620;28;20045;-67
2022/08/27 01:09:34;;;;;;;11.57;7.20;;;13.40;99.90;;;;;;5031683;28;20045;-66
2022/08/27 01:12:01;;;;;;;14.48;6.80;;;13.30;99.90;;;;;;5031892;28;20059;-67
2022/08/27 01:14:27;;;;;;;12.90;7.30;;;13.30;99.90;;;;;;5032042;28;20056;-67
2022/08/27 01:16:56;;;;;;;12.70;7.13;;;13.40;99.90;;;;;;5051253;28;20095;-67
2022/08/27 01:19:34;;;;;;;16.25;7.28;;;13.30;99.90;;;;;;5063460;28;20424;-66
2022/08/27 01:22:21;;;;;;;12.60;7.00;;;13.30;99.90;;;;;;5048309;28;20045;-67
2022/08/27 01:24:49;;;;;;;16.73;7.20;;;13.20;99.90;;;;;;5051018;28;20041;-66
2022/08/27 01:27:18;;;;;;;12.40;7.53;;;13.30;99.90;;;;;;5046229;28;20116;-66
2022/08/27 01:29:44;;;;;;;12.63;7.03;;;13.20;99.90;;;;;;5050165;28;20072;-66
2022/08/27 01:32:22;;;;;;;12.68;7.78;;;13.20;99.90;;;;;;5051258;28;20053;-66
2022/08/27 01:34:49;;;;;;;16.10;7.63;;;13.20;99.90;;;;;;5048254;28;20049;-67
2022/08/27 01:37:16;;;;;;;14.65;7.80;;;13.30;99.90;;;;;;5051116;28;20037;-67
2022/08/27 01:39:42;;;;;;;14.85;8.05;;;13.20;99.90;;;;;;5051064;28;20041;-67
2022/08/27 01:42:21;;;;;;;16.23;7.82;;;13.20;99.90;;;;;;5052001;28;20037;-67
2022/08/27 01:44:51;;;;;;;14.27;7.82;;;13.30;99.90;;;;;;5063612;28;20443;-66
2022/08/27 01:47:19;;;;;;;13.45;8.20;;;13.30;99.90;;;;;;5050549;28;20053;-66
2022/08/27 01:49:46;;;;;;;17.05;8.65;;;13.20;99.90;;;;;;5050336;28;20041;-67
2022/08/27 01:52:13;;;;;;;14.07;8.20;;;13.10;99.90;;;;;;5048278;28;20049;-67
2022/08/27 01:54:39;;;;;;;15.55;8.30;;;13.20;99.90;;;;;;5050666;28;20060;-66
2022/08/27 01:57:05;;;;;;;12.48;7.95;;;13.20;99.90;;;;;;5050730;28;20036;-67
2022/08/27 01:59:31;;;;;;;13.38;7.60;;;13.20;99.90;;;;;;5050263;28;20095;-67
2022/08/27 02:01:56;;;;;;;16.98;8.25;;;13.10;99.90;;;;;;5048498;28;20549;-66
2022/08/27 02:04:22;;;;;;;14.32;8.05;;;13.10;99.90;;;;;;5048922;28;20152;-67
2022/08/27 02:06:48;;;;;;;14.50;7.63;;;13.10;99.90;;;;;;5048982;28;20167;-67
2022/08/27 02:09:14;;;;;;;12.85;8.20;;;13.10;99.90;;;;;;5048882;28;20399;-66
2022/08/27 02:11:39;;;;;;;13.50;7.13;;;13.10;99.90;;;;;;5049996;28;20037;-67
2022/08/27 02:14:05;;;;;;;13.15;7.88;;;13.00;99.90;;;;;;5050546;28;20041;-67
2022/08/27 02:16:31;;;;;;;14.32;7.72;;;13.10;99.90;;;;;;5050870;28;20563;-67
2022/08/27 02:18:57;;;;;;;15.20;8.40;;;13.10;99.90;;;;;;5045880;28;20056;-66
2022/08/27 02:21:24;;;;;;;11.80;7.47;;;13.10;99.90;;;;;;5066685;28;20563;-67
2022/08/27 02:23:50;;;;;;;16.20;7.88;;;13.00;99.90;;;;;;5049491;28;20098;-67
2022/08/27 02:26:16;;;;;;;11.88;7.90;;;13.10;99.90;;;;;;5048574;28;20048;-66
2022/08/27 02:28:42;;;;;;;13.35;7.70;;;12.90;99.90;;;;;;5051830;28;20040;-65
2022/08/27 02:31:09;;;;;;;14.32;8.00;;;12.90;99.90;;;;;;5049273;28;20120;-66
2022/08/27 02:33:34;;;;;;;12.80;7.68;;;12.90;99.90;;;;;;5049604;28;20085;-66
2022/08/27 02:36:00;;;;;;;13.40;7.60;;;12.80;99.90;;;;;;5030308;28;20440;-66
2022/08/27 02:38:26;;;;;;;16.45;8.25;;;12.90;99.90;;;;;;5030616;28;20203;-67
2022/08/27 02:40:51;;;;;;;13.40;7.50;;;12.90;99.90;;;;;;5045695;28;20049;-66
2022/08/27 02:43:17;;;;;;;9.13;6.82;;;12.80;99.90;;;;;;5049546;28;20048;-67
2022/08/27 02:45:42;;;;;;;12.60;7.10;;;12.80;99.90;;;;;;5063853;28;20527;-67
2022/08/27 02:48:08;;;;;;;9.63;7.18;;;12.80;99.90;;;;;;5049796;28;20033;-67
2022/08/27 02:50:35;;;;;;;11.35;7.45;;;12.90;99.90;;;;;;5044136;28;20715;-67
2022/08/27 02:53:02;;;;;;;14.65;8.00;;;12.80;99.90;;;;;;5045386;28;20098;-66
2022/08/27 02:55:28;;;;;;;12.20;6.93;;;12.80;99.90;;;;;;5049884;28;20407;-67
2022/08/27 02:57:54;;;;;;;11.10;7.40;;;12.70;99.90;;;;;;5048030;28;20405;-67
2022/08/27 03:00:21;;;;;;;11.38;6.65;;;12.80;99.90;;;;;;5063750;28;20041;-67
2022/08/27 03:02:48;;;;;;;10.60;6.65;;;12.80;99.90;;;;;;5048289;28;20090;-67
2022/08/27 03:05:15;;;;;;;13.30;6.40;;;12.80;99.90;;;;;;5049263;28;20037;-67
2022/08/27 03:07:41;;;;;;;12.15;7.05;;;12.80;99.90;;;;;;5050877;28;20063;-67
2022/08/27 03:10:08;;;;;;;10.63;6.38;;;12.70;99.90;;;;;;5049767;28;20082;-67
2022/08/27 03:12:35;;;;;;;9.82;6.38;;;12.70;99.90;;;;;;5048127;28;20484;-67
2022/08/27 03:15:05;;;;;;;12.27;6.97;;;12.70;99.90;;;;;;5049029;28;20040;-67
2022/08/27 03:20:15;;;;;;;13.80;7.25;;;12.70;99.90;;;;;;5048730;28;20510;-67
2022/08/27 03:22:41;;;;;;;9.52;6.65;;;12.60;99.90;;;;;;5046551;28;20347;-66
2022/08/27 03:25:08;;;;;;;10.80;6.68;;;12.60;99.90;;;;;;5066063;28;20115;-66
2022/08/27 03:27:34;;;;;;;10.48;6.10;;;12.50;99.90;;;;;;5048803;28;20068;-67
2022/08/27 03:30:05;;;;;;;11.70;6.85;;;12.50;99.90;;;;;;5048945;28;20084;-66
2022/08/27 03:32:31;;;;;;;10.43;6.35;;;12.40;99.90;;;;;;5048698;28;20132;-67
2022/08/27 03:34:57;;;;;;;10.05;6.70;;;12.40;99.90;;;;;;5066484;28;20123;-66
2022/08/27 03:37:23;;;;;;;12.43;6.43;;;12.50;99.90;;;;;;5069302;28;20044;-67
2022/08/27 03:39:49;;;;;;;10.63;6.10;;;12.40;99.90;;;;;;5059947;28;20043;-67
2022/08/27 03:42:15;;;;;;;10.45;6.63;;;12.50;99.90;;;;;;5045458;28;20063;-67
2022/08/27 03:44:40;;;;;;;10.20;6.53;;;12.30;99.90;;;;;;5043699;28;20041;-67
2022/08/27 03:47:06;;;;;;;11.18;6.35;;;12.40;99.90;;;;;;5044901;28;20041;-67
2022/08/27 03:49:31;;;;;;;11.48;7.00;;;12.40;99.90;;;;;;5048692;28;20169;-67
2022/08/27 03:51:57;;;;;;;11.18;6.75;;;12.30;99.90;;;;;;5045825;28;20029;-67
2022/08/27 03:54:24;;;;;;;10.95;6.68;;;12.40;99.90;;;;;;5063052;28;20106;-67
2022/08/27 03:56:50;;;;;;;12.63;7.28;;;12.30;99.90;;;;;;5050075;28;20041;-66
2022/08/27 03:59:15;;;;;;;10.65;5.97;;;12.30;99.90;;;;;;5058050;28;20040;-66
2022/08/27 04:01:41;;;;;;;12.80;7.03;;;12.20;99.90;;;;;;5068748;28;20464;-67
2022/08/27 04:04:07;;;;;;;12.65;7.32;;;12.20;99.90;;;;;;5068965;28;20048;-67
2022/08/27 04:06:34;;;;;;;16.10;7.28;;;12.30;99.90;;;;;;5053108;28;20040;-67
2022/08/27 04:08:59;;;;;;;12.95;7.40;;;12.20;99.90;;;;;;5049524;28;20063;-68
2022/08/27 04:11:26;;;;;;;13.52;7.43;;;12.30;99.90;;;;;;5048248;28;20037;-67
2022/08/27 04:13:52;;;;;;;10.07;6.55;;;12.40;99.90;;;;;;5038555;28;20046;-67
2022/08/27 04:16:17;;;;;;;13.65;7.82;;;12.40;99.90;;;;;;5042252;28;20552;-67
2022/08/27 04:18:43;;;;;;;10.77;7.13;;;12.40;99.90;;;;;;5040081;28;20626;-67
2022/08/27 04:21:11;;;;;;;15.85;7.22;;;12.50;99.90;;;;;;5048197;28;20123;-67
2022/08/27 04:23:38;;;;;;;12.70;7.07;;;12.40;99.90;;;;;;5048534;28;20045;-67
2022/08/27 04:26:05;;;;;;;14.18;7.32;;;12.50;99.90;;;;;;5049000;28;20048;-67
2022/08/27 04:28:31;;;;;;;9.25;6.90;;;12.50;99.90;;;;;;5048952;28;20076;-67
2022/08/27 04:30:57;;;;;;;13.45;7.20;;;12.40;99.90;;;;;;5046723;28;20052;-67
2022/08/27 04:33:23;;;;;;;10.20;6.40;;;12.50;99.90;;;;;;5048802;28;20045;-67
2022/08/27 04:36:00;;;;;;;11.65;7.03;;;12.30;99.90;;;;;;5065301;28;20102;-67
2022/08/27 04:38:26;;;;;;;12.13;7.47;;;12.30;99.90;;;;;;5048186;28;20052;-67
2022/08/27 04:43:36;;;;;;;13.45;7.78;;;12.40;99.90;;;;;;5027755;28;20104;-67
2022/08/27 04:46:02;;;;;;;10.98;6.53;;;12.40;99.90;;;;;;5058680;28;20041;-68
2022/08/27 04:48:27;;;;;;;8.60;5.88;;;12.40;99.90;;;;;;5043592;28;20044;-68
2022/08/27 04:50:53;;;;;;;6.18;4.60;;;12.50;99.90;;;;;;5047447;28;20136;-67
2022/08/27 04:53:19;;;;;;;4.25;3.85;;;12.50;99.90;;;;;;5048562;28;20381;-68
2022/08/27 04:55:50;;;;;;;4.78;3.88;;;12.40;99.90;;;;;;5049979;28;20045;-67
2022/08/27 04:58:16;;;;;;;5.90;4.38;;;12.30;99.90;;;;;;5051471;28;20395;-68
2022/08/27 05:00:51;;;;;;;6.55;4.78;;;12.20;99.90;;;;;;5052109;28;20107;-68
2022/08/27 05:03:20;;;;;;;6.72;5.30;;;12.00;99.90;;;;;;5047809;28;20045;-68
2022/08/27 05:05:46;;;;;;;8.95;5.72;;;11.90;99.90;;;;;;5050697;28;20041;-67
2022/08/27 05:08:12;;;;;;;8.48;6.22;;;11.90;99.90;;;;;;5046602;28;20029;-67
2022/08/27 05:10:40;;;;;;;9.38;6.00;;;12.00;99.90;;;;;;5048862;28;20399;-68
2022/08/27 05:13:06;;;;;;;9.82;4.22;;;12.00;99.90;;;;;;5048204;28;20107;-67
2022/08/27 05:15:32;;;;;;;9.52;5.93;;;11.90;99.90;;;;;;5042859;28;20123;-68
2022/08/27 05:17:59;;;;;;;13.77;7.22;;;12.00;99.90;;;;;;5049033;28;20395;-68
2022/08/27 05:20:26;;;;;;;30.70;7.78;;;12.00;99.90;;;;;;5052014;28;20585;-67
2022/08/27 05:22:51;;;;;;;11.75;7.40;;;12.00;99.90;;;;;;5045025;28;20044;-68
2022/08/27 05:25:17;;;;;;;11.23;7.55;;;12.00;99.90;;;;;;5067227;28;20193;-67
2022/08/27 05:27:43;;;;;;;12.13;7.72;;;12.10;99.90;;;;;;5036052;28;20049;-67
2022/08/27 05:30:09;;;;;;;14.55;8.52;;;12.20;99.90;;;;;;5042541;28;20476;-66
2022/08/27 05:32:35;;;;;;;13.85;7.72;;;12.20;99.90;;;;;;5049812;28;20395;-67
2022/08/27 05:35:00;;;;;;;11.70;7.25;;;12.30;99.90;;;;;;5048809;28;20046;-66
2022/08/27 05:37:26;;;;;;;16.73;8.50;;;12.40;99.90;;;;;;5048879;28;20036;-66
2022/08/27 05:39:52;;;;;;;14.32;7.93;;;12.60;99.90;;;;;;5012080;28;1092951;-67
2022/08/27 05:42:18;;;;;;;14.25;8.18;;;12.60;99.90;;;;;;5032986;28;20395;-67
2022/08/27 05:44:44;;;;;;;12.60;7.57;;;12.80;99.90;;;;;;5048958;28;20044;-67
2022/08/27 05:47:10;;;;;;;13.68;7.57;;;12.80;99.90;;;;;;5062985;28;20037;-68
2022/08/27 05:49:36;;;;;;;13.30;7.20;;;12.80;99.90;;;;;;5050585;28;20044;-67
2022/08/27 05:52:02;;;;;;;12.48;7.55;;;12.90;99.90;;;;;;5045857;28;20102;-67
2022/08/27 05:54:27;;;;;;;11.65;7.03;;;13.00;99.90;;;;;;5050556;28;20258;-67
2022/08/27 05:56:53;;;;;;;14.55;7.95;;;13.10;99.90;;;;;;5050056;28;20041;-67
2022/08/27 06:02:04;;;;;;;12.52;7.15;;;13.30;99.90;;;;;;5066449;28;20475;-68
2022/08/27 06:04:30;;;;;;;10.82;7.35;;;13.30;99.90;;;;;;5048914;28;20049;-67
2022/08/27 06:06:56;;;;;;;11.15;6.57;;;13.40;99.90;;;;;;5057021;28;20085;-68
2022/08/27 06:09:24;;;;;;;14.18;6.85;;;13.60;99.90;;;;;;5050970;28;20037;-68
2022/08/27 06:11:53;;;;;;;13.23;6.93;;;13.70;99.90;;;;;;5066228;28;20051;-68
2022/08/27 06:14:18;;;;;;;12.25;6.95;;;13.70;99.90;;;;;;5060469;28;20029;-68
2022/08/27 06:16:44;;;;;;;11.32;7.05;;;13.80;99.90;;;;;;5048604;28;20127;-68
2022/08/27 06:19:11;;;;;;;13.18;6.90;;;13.90;99.90;;;;;;5049824;28;20048;-68
2022/08/27 06:21:37;;;;;;;13.90;7.90;;;14.10;99.90;;;;;;5044669;28;20037;-68
2022/08/27 06:24:02;;;;;;;11.95;6.57;;;14.20;99.90;;;;;;5049073;28;20570;-68
2022/08/27 06:26:28;;;;;;;8.13;6.45;;;14.30;99.90;;;;;;5049705;28;20029;-68
2022/08/27 06:28:54;;;;;;;10.32;5.93;;;14.40;99.90;;;;;;5049029;28;20372;-68
2022/08/27 06:31:25;;;;;;;11.70;6.20;;;14.50;99.90;;;;;;5050555;28;20037;-68
2022/08/27 06:33:53;;;;;;;11.77;6.20;;;14.70;99.90;;;;;;5049122;28;20109;-68
2022/08/27 06:36:23;;;;;;;8.27;5.40;;;14.90;99.90;;;;;;5049794;28;20157;-68
2022/08/27 06:38:49;;;;;;;10.07;5.10;;;15.00;99.90;;;;;;5041487;28;20171;-68
2022/08/27 06:41:17;;;;;;;7.38;4.70;;;15.20;99.90;;;;;;5044096;28;20115;-68
2022/08/27 06:43:43;;;;;;;9.25;4.93;;;15.40;99.90;;;;;;5039174;28;20053;-67
2022/08/27 06:46:13;;;;;;;8.05;4.72;;;15.50;99.90;;;;;;5047244;28;20048;-67
2022/08/27 06:48:39;;;;;;;10.93;4.50;;;15.70;99.90;;;;;;5048860;28;20106;-67
2022/08/27 06:51:15;;;;;;;11.27;4.93;;;15.80;99.90;;;;;;5043832;28;20029;-68
2022/08/27 06:53:41;;;;;;;8.98;4.57;;;15.90;99.90;;;;;;5049028;28;20045;-67
2022/08/27 06:56:08;;;;;;;9.98;4.50;;;16.10;99.90;;;;;;5065723;28;20116;-68
2022/08/27 06:58:34;;;;;;;6.68;4.03;;;16.20;99.90;;;;;;5049658;28;20446;-68
2022/08/27 07:01:00;;;;;;;7.60;4.05;;;16.40;99.90;;;;;;5048967;28;20131;-68
2022/08/27 07:03:26;;;;;;;10.98;4.20;;;16.60;99.90;;;;;;5048982;28;20127;-67
2022/08/27 07:05:51;;;;;;;8.02;3.78;;;16.70;99.90;;;;;;5048818;28;20045;-68
2022/08/27 07:08:17;;;;;;;5.63;3.80;;;16.80;99.90;;;;;;5035071;28;20509;-67
2022/08/27 07:10:43;;;;;;;9.40;4.13;;;16.90;99.90;;;;;;5037978;28;20033;-68
2022/08/27 07:13:09;;;;;;;5.65;3.70;;;17.00;99.90;;;;;;5065363;28;20170;-68
2022/08/27 07:15:38;;;;;;;7.10;3.53;;;17.00;99.90;;;;;;5049193;28;20136;-67
2022/08/27 07:18:04;;;;;;;10.65;3.67;;;17.00;99.90;;;;;;5048946;28;20171;-67
2022/08/27 07:20:29;;;;;;;6.80;3.45;;;17.00;99.90;;;;;;5049691;28;20123;-68
2022/08/27 07:22:57;;;;;;;8.15;3.63;;;16.90;99.90;;;;;;5047689;28;20053;-68
2022/08/27 07:25:23;;;;;;;6.80;3.53;;;16.90;99.90;;;;;;5044153;28;20102;-68
2022/08/27 07:27:49;;;;;;;10.95;4.13;;;17.00;99.90;;;;;;5044751;28;20547;-68
2022/08/27 07:30:16;;;;;;;7.78;3.67;;;17.00;99.90;;;;;;5037988;28;20044;-68
2022/08/27 07:32:44;;;;;;;15.32;3.80;;;17.00;99.90;;;;;;5042243;28;20426;-68
2022/08/27 07:35:09;;;;;;;6.20;3.30;;;17.10;99.90;;;;;;5040003;28;20115;-68
2022/08/27 07:37:36;;;;;;;7.05;3.30;;;17.10;99.90;;;;;;5034393;28;20230;-68
2022/08/27 07:40:04;;;;;;;6.70;3.20;;;17.20;99.90;;;;;;5056013;28;20101;-68
2022/08/27 07:45:14;;;;;;;5.45;3.00;;;17.50;99.90;;;;;;5044509;28;20494;-68
2022/08/27 07:47:39;;;;;;;7.88;2.97;;;17.70;99.90;;;;;;5043595;28;20124;-68
2022/08/27 07:50:06;;;;;;;5.50;2.70;;;17.80;99.90;;;;;;5044026;28;20068;-68
2022/08/27 07:52:32;;;;;;;7.07;2.33;;;18.00;99.90;;;;;;5045889;28;20033;-68
2022/08/27 07:54:58;;;;;;;7.30;2.30;;;18.10;99.90;;;;;;5048096;28;20045;-67
2022/08/27 07:57:23;;;;;;;6.60;2.30;;;18.20;99.90;;;;;;5048281;28;20068;-68
2022/08/27 07:59:49;;;;;;;8.18;2.95;;;18.40;99.90;;;;;;5046168;28;20499;-67
2022/08/27 08:02:15;;;;;;;8.93;2.50;;;18.50;99.90;;;;;;5048098;28;20444;-68
2022/08/27 08:04:40;;;;;;;7.78;2.17;;;18.70;99.90;;;;;;5047442;28;20049;-67
2022/08/27 08:07:06;;;;;;;7.43;2.53;;;18.80;99.90;;;;;;5047544;28;20501;-68
2022/08/27 08:09:32;;;;;;;7.03;2.30;;;18.80;99.90;;;;;;5043672;28;20037;-68
2022/08/27 08:11:57;;;;;;;6.45;1.80;;;18.90;99.90;;;;;;5041545;28;20484;-68
2022/08/27 08:14:23;;;;;;;4.47;1.73;;;19.00;99.90;;;;;;5057484;28;20495;-67
2022/08/27 08:16:49;;;;;;;8.70;1.83;;;19.00;99.90;;;;;;5042231;28;20202;-68
2022/08/27 08:19:14;;;;;;;6.80;1.88;;;19.10;99.90;;;;;;5043034;28;20510;-68
2022/08/27 08:21:41;;;;;;;5.65;1.98;;;19.30;99.90;;;;;;5043581;28;20048;-69
2022/08/27 08:24:07;;;;;;;7.13;1.92;;;19.40;99.90;;;;;;5044321;28;20498;-69
2022/08/27 08:26:32;;;;;;;4.68;1.75;;;19.60;99.90;;;;;;5043194;28;20087;-69
2022/08/27 08:28:59;;;;;;;5.15;1.70;;;19.80;99.90;;;;;;5046729;28;20033;-69
2022/08/27 08:31:26;;;;;;;7.20;1.70;;;19.90;99.90;;;;;;5043986;28;20036;-68
2022/08/27 08:33:52;;;;;;;7.38;1.70;;;19.80;99.90;;;;;;5048055;28;20431;-68
2022/08/27 08:36:18;;;;;;;6.85;1.70;;;19.80;99.90;;;;;;5061301;28;20041;-68
2022/08/27 08:38:45;;;;;;;6.18;1.83;;;19.80;99.90;;;;;;5047425;28;20086;-69
2022/08/27 08:41:30;;;;;;;7.65;1.80;;;19.80;99.90;;;;;;5023714;28;20372;-68
2022/08/27 08:43:57;;;;;;;5.88;1.83;;;19.80;99.90;;;;;;5061419;28;20085;-68
2022/08/27 08:46:44;;;;;;;7.20;1.70;;;19.90;99.90;;;;;;5047250;28;20033;-68
2022/08/27 08:49:31;;;;;;;4.93;1.75;;;19.90;99.90;;;;;;5063231;28;20048;-68
2022/08/27 08:52:08;;;;;;;6.00;1.70;;;20.00;99.90;;;;;;5046609;28;20191;-69
2022/08/27 08:54:33;;;;;;;9.73;1.95;;;20.00;99.90;;;;;;5046987;28;20052;-69
2022/08/27 08:57:09;;;;;;;5.50;1.73;;;20.10;99.90;;;;;;5051138;28;20106;-68
2022/08/27 08:59:38;;;;;;;4.80;1.40;;;20.20;99.90;;;;;;5051070;28;20131;-68
2022/08/27 09:02:07;;;;;;;6.53;1.50;;;20.10;99.90;;;;;;5047415;28;20049;-67
2022/08/27 09:04:33;;;;;;;4.32;1.70;;;20.10;99.90;;;;;;5049841;28;20048;-68
2022/08/27 09:07:10;;;;;;;7.80;1.98;;;20.20;99.90;;;;;;5049689;28;20087;-68
2022/08/27 09:09:48;;;;;;;7.20;1.70;;;20.40;99.90;;;;;;5042573;28;20037;-67
2022/08/27 09:12:18;;;;;;;4.93;1.70;;;20.50;99.90;;;;;;5043546;28;20112;-67
2022/08/27 09:14:58;;;;;;;8.85;1.70;;;20.60;99.90;;;;;;5026484;28;20044;-69
2022/08/27 09:17:24;;;;;;;7.13;1.60;;;20.50;99.90;;;;;;5045737;28;20049;-68
2022/08/27 09:19:50;;;;;;;5.88;1.63;;;20.40;99.90;;;;;;5044960;28;20122;-68
2022/08/27 09:23:00;;;;;;;7.85;1.73;;;20.40;99.90;;;;;;5059874;28;20040;-68
2022/08/27 09:25:31;;;;;;;6.80;1.65;;;20.40;99.90;;;;;;5057593;28;20033;-67
2022/08/27 09:28:05;;;;;;;4.30;1.30;;;20.60;99.90;;;;;;5060927;28;20084;-68
2022/08/27 09:30:40;;;;;;;7.50;1.70;;;20.80;99.90;;;;;;5046956;28;20069;-67
2022/08/27 09:33:05;;;;;;;7.28;1.80;;;20.80;99.90;;;;;;5049025;28;20045;-67
2022/08/27 09:35:43;;;;;;;4.75;1.60;;;20.60;99.90;;;;;;5057740;28;20551;-66
2022/08/27 09:38:12;;;;;;;5.13;1.48;;;20.30;99.90;;;;;;5057614;28;20041;-67
2022/08/27 09:40:45;;;;;;;3.92;1.38;;;20.10;99.90;;;;;;5042782;28;20455;-67
2022/08/27 09:43:20;;;;;;;;;;;19.90;99.90;;;;;;5036637;28;20040;-67
2022/08/27 09:45:58;;;;;;;9.05;2.05;;;19.70;99.90;;;;;;5041354;28;20353;-66
2022/08/27 09:48:35;;;;;;;8.43;1.58;;;19.50;99.90;;;;;;5043257;28;20053;-68
2022/08/27 09:51:07;;;;;;;7.32;1.80;;;19.40;99.90;;;;;;5048537;28;20032;-68
2022/08/27 09:53:46;;;;;;;5.28;1.60;;;19.30;99.90;;;;;;5047234;28;20053;-66
2022/08/27 09:56:25;;;;;;;6.47;1.40;;;19.20;99.90;;;;;;5031450;28;20451;-68
2022/08/27 09:59:04;;;;;;;13.25;2.20;;;19.20;99.90;;;;;;5049970;28;20037;-67
2022/08/27 10:01:37;;;;;;;5.80;1.40;;;19.30;99.90;;;;;;5049648;28;20060;-66
2022/08/27 10:04:09;;;;;;;4.57;1.50;;;19.30;99.90;;;;;;5051696;28;20040;-68
2022/08/27 10:06:35;;;;;;;6.75;1.33;;;19.30;99.90;;;;;;5047200;28;20098;-68
2022/08/27 10:09:18;;;;;;;6.03;1.50;;;19.30;99.90;;;;;;5045797;28;20090;-67
2022/08/27 10:11:54;;;;;;;9.43;1.50;;;19.40;99.90;;;;;;5046325;28;20052;-67
2022/08/27 10:14:30;;;;;;;5.45;1.58;;;19.40;99.90;;;;;;5049858;28;20486;-68
2022/08/27 10:17:11;;;;;;;7.50;1.55;;;19.50;99.90;;;;;;5049493;28;20083;-68
2022/08/27 10:19:52;;;;;;;4.25;1.42;;;19.60;99.90;;;;;;5051061;28;20175;-68
2022/08/27 10:22:53;;;;;;;4.47;1.25;;;19.60;99.90;;;;;;5047987;28;20110;-69
2022/08/27 10:25:38;;;;;;;5.90;1.30;;;19.70;99.90;;;;;;5046612;28;20447;-68
2022/08/27 10:28:13;;;;;;;7.72;1.70;;;19.80;99.90;;;;;;5043895;28;20045;-66
2022/08/27 10:30:48;;;;;;;5.18;1.60;;;19.90;99.90;;;;;;5046231;28;20131;-66
2022/08/27 10:33:29;;;;;;;4.88;1.35;;;19.90;99.90;;;;;;5049116;28;20414;-67
2022/08/27 10:36:30;;;;;;;4.57;1.70;;;19.90;99.90;;;;;;5045250;28;20048;-67
2022/08/27 10:39:49;;;;;;;9.25;1.50;;;20.00;99.90;;;;;;5044988;28;20087;-67
2022/08/27 10:42:27;;;;;;;9.25;1.83;;;20.00;99.90;;;;;;5024264;28;20052;-68
2022/08/27 10:45:30;;;;;;;8.45;1.50;;;20.10;99.90;;;;;;5050871;28;20102;-66
2022/08/27 10:48:23;;;;;;;5.70;1.20;;;20.20;99.90;;;;;;5048493;28;20464;-66
2022/08/27 10:51:10;;;;;;;6.00;1.60;;;20.20;99.90;;;;;;5043924;28;20686;-68
2022/08/27 10:53:46;;;;;;;7.32;1.50;;;20.30;99.90;;;;;;5049775;28;20123;-68
2022/08/27 10:56:50;;;;;;;7.63;1.50;;;20.30;99.90;;;;;;5043336;28;20037;-67
2022/08/27 10:59:50;;;;;;;4.57;1.25;;;20.40;99.90;;;;;;4972430;28;20132;-67
2022/08/27 11:02:23;;;;;;;5.78;1.30;;;20.40;99.90;;;;;;5043716;28;20033;-67
2022/08/27 11:04:59;;;;;;;11.48;1.67;;;20.50;99.90;;;;;;5047379;28;20062;-68
2022/08/27 11:07:59;;;;;;;5.28;1.50;;;20.50;99.90;;;;;;5062432;28;20079;-67
2022/08/27 11:10:35;;;;;;;5.30;1.67;;;20.50;99.90;;;;;;5037301;28;20056;-67
2022/08/27 11:13:31;;;;;;;5.63;1.23;;;20.60;99.90;;;;;;5045823;28;20098;-67
2022/08/27 11:16:00;;;;;;;5.60;1.52;;;20.60;99.90;;;;;;5052257;28;20036;-67
2022/08/27 11:18:50;;;;;;;5.18;1.30;;;20.50;99.90;;;;;;5047962;28;20041;-66
2022/08/27 11:21:28;;;;;;;8.73;1.38;;;20.60;99.90;;;;;;5036485;28;20416;-68
2022/08/27 11:24:22;;;;;;;5.70;1.40;;;20.60;99.90;;;;;;5044104;28;20759;-66
2022/08/27 11:26:52;;;;;;;4.88;1.30;;;20.70;99.90;;;;;;5046814;28;20037;-67
2022/08/27 11:29:25;;;;;;;6.25;1.50;;;20.60;99.90;;;;;;5049427;28;20041;-67
2022/08/27 11:32:22;;;;;;;4.57;1.40;;;20.60;99.90;;;;;;5048129;28;20044;-67
2022/08/27 11:34:57;;;;;;;6.32;1.40;;;20.70;99.90;;;;;;5048168;28;20045;-67
2022/08/27 11:37:44;;;;;;;7.88;1.48;;;20.70;99.90;;;;;;5049857;28;20556;-68
2022/08/27 11:40:37;;;;;;;2.35;1.10;;;20.90;99.90;;;;;;5040931;28;20033;-67
2022/08/27 11:43:09;;;;;;;6.07;1.40;;;21.10;99.90;;;;;;5043833;28;20091;-68
2022/08/27 11:45:39;;;;;;;5.53;1.30;;;21.10;99.90;;;;;;5043925;28;20036;-67
2022/08/27 11:48:23;;;;;;;4.93;1.38;;;21.00;99.90;;;;;;5057879;28;20040;-66
2022/08/27 11:50:53;;;;;;;8.82;1.30;;;21.00;99.90;;;;;;5047016;28;20037;-67
2022/08/27 11:53:29;;;;;;;6.65;1.38;;;20.90;99.90;;;;;;5028197;28;20385;-67
2022/08/27 11:55:55;;;;;;;7.85;1.55;;;20.80;99.90;;;;;;5028280;28;20095;-68
2022/08/27 11:58:21;;;;;;;7.10;1.67;;;20.80;99.90;;;;;;5060180;28;20128;-67
2022/08/27 12:00:48;;;;;;;6.95;1.50;;;21.00;99.90;;;;;;5043870;28;20059;-67
2022/08/27 12:03:29;;;;;;;10.00;1.83;;;21.10;99.90;;;;;;5050227;28;20056;-66
2022/08/27 12:05:55;;;;;;;5.70;1.45;;;21.20;99.90;;;;;;5052173;28;20487;-67
2022/08/27 12:08:20;;;;;;;6.90;1.48;;;21.10;99.90;;;;;;5052098;28;20047;-67
2022/08/27 12:11:04;;;;;;;9.75;1.50;;;21.00;99.90;;;;;;5048547;28;20091;-67
2022/08/27 12:13:55;;;;;;;5.90;1.63;;;21.00;99.90;;;;;;5036642;28;20406;-65
2022/08/27 12:16:30;;;;;;;5.38;1.10;;;21.00;99.90;;;;;;5053548;28;20052;-67
2022/08/27 12:19:51;;;;;;;4.93;1.30;;;21.00;99.90;;;;;;5042152;28;20526;-67
2022/08/27 12:25:52;;;;;;;3.65;1.13;;;20.80;99.90;;;;;;5038809;28;20055;-66
2022/08/27 12:28:23;;;;;;;8.48;1.20;;;20.80;99.90;;;;;;5025346;28;20676;-67
2022/08/27 12:30:50;;;;;;;5.68;1.40;;;20.80;99.90;;;;;;5050768;28;20044;-66
2022/08/27 12:33:31;;;;;;;4.45;1.35;;;20.90;99.90;;;;;;5046698;28;20128;-67
2022/08/27 12:36:06;;;;;;;2.67;1.15;;;20.80;99.90;;;;;;5037018;28;20470;-67
2022/08/27 12:38:32;;;;;;;7.18;1.60;;;20.90;99.90;;;;;;5039189;28;20487;-67
2022/08/27 12:41:07;;;;;;;6.35;1.48;;;20.80;99.90;;;;;;5037023;28;20040;-66
2022/08/27 12:43:42;;;;;;;4.00;1.45;;;20.70;99.90;;;;;;5040468;28;20045;-66
2022/08/27 12:46:14;;;;;;;6.68;1.60;;;20.80;99.90;;;;;;5038209;28;20044;-67
2022/08/27 12:48:45;;;;;;;;;;;20.80;99.90;;;;;;5051285;28;20037;-67
2022/08/27 12:51:31;;;;;;;5.00;1.17;;;20.80;99.90;;;;;;5050837;28;19917;-67
2022/08/27 12:54:30;;;;;;;5.90;1.42;;;20.80;99.90;;;;;;5045214;28;20128;-67
2022/08/27 12:57:16;;;;;;;8.15;1.77;;;21.00;99.90;;;;;;5045450;28;20556;-68
2022/08/27 13:00:14;;;;;;;6.28;1.33;;;21.10;99.90;;;;;;5061975;28;20040;-66
2022/08/27 13:03:12;;;;;;;4.18;1.30;;;21.10;99.90;;;;;;5058999;28;20245;-67
2022/08/27 13:05:41;;;;;;;4.75;1.23;;;21.10;99.90;;;;;;5051017;28;20049;-67
2022/08/27 13:08:21;;;;;;;4.60;1.30;;;21.00;99.90;;;;;;5051426;28;20048;-67
2022/08/27 13:10:48;;;;;;;5.65;1.42;;;21.10;99.90;;;;;;5051076;28;20044;-67
2022/08/27 13:13:17;;;;;;;6.10;1.30;;;21.00;99.90;;;;;;5047530;28;20053;-67
2022/08/27 13:15:47;;;;;;;6.03;1.20;;;20.90;99.90;;;;;;5050730;28;20055;-68
2022/08/27 13:18:15;;;;;;;5.60;1.23;;;20.80;99.90;;;;;;5031874;28;20048;-67